Time;durP1;ratioP1;P1;durP2;ratioP2;P2;SDS_P1;SDS_P2;PMS_P1;PMS_P2;Temp;Humidity;BMP_temperature;BMP_pressure;BME280_temperature;BME280_humidity;BME280_pressure;Samples;Min_cycle;Max_cycle;Signal;HPM_P1;HPM_P2
2022/11/03 00:02:00;;;;;;;12.32;4.82;;;6.50;99.90;;;;;;4943316;28;20494;-56
2022/11/03 00:04:27;;;;;;;6.75;4.15;;;6.50;99.90;;;;;;4942850;28;20043;-55
2022/11/03 00:06:54;;;;;;;;;;;6.50;99.90;;;;;;4942368;28;20319;-56
2022/11/03 00:09:22;;;;;;;11.77;4.77;;;6.50;99.90;;;;;;4942860;28;20025;-55
2022/11/03 00:11:50;;;;;;;9.10;3.95;;;6.40;99.90;;;;;;4940118;28;20082;-55
2022/11/03 00:14:18;;;;;;;7.75;4.18;;;6.40;99.90;;;;;;4946394;28;20152;-57
2022/11/03 00:16:45;;;;;;;6.72;4.07;;;6.40;99.90;;;;;;4939370;28;20055;-56
2022/11/03 00:19:13;;;;;;;;;;;6.30;99.90;;;;;;4941776;28;20458;-57
2022/11/03 00:21:40;;;;;;;8.25;4.30;;;6.30;99.90;;;;;;4944591;28;19933;-55
2022/11/03 00:24:07;;;;;;;;;;;6.20;99.90;;;;;;4940955;28;20088;-55
2022/11/03 00:26:35;;;;;;;7.53;4.07;;;6.20;99.90;;;;;;4942494;28;19961;-55
2022/11/03 00:29:08;;;;;;;8.93;4.28;;;6.10;99.90;;;;;;4943324;28;20603;-56
2022/11/03 00:31:37;;;;;;;10.60;4.88;;;6.00;99.90;;;;;;4941919;28;20040;-56
2022/11/03 00:34:04;;;;;;;5.85;3.97;;;6.00;99.90;;;;;;4941231;28;20051;-55
2022/11/03 00:36:37;;;;;;;6.05;4.30;;;6.00;99.90;;;;;;4939220;28;20576;-54
2022/11/03 00:39:04;;;;;;;7.13;4.32;;;6.00;99.90;;;;;;4942915;28;20169;-56
2022/11/03 00:41:32;;;;;;;7.95;4.00;;;5.90;99.90;;;;;;4944576;28;20043;-56
2022/11/03 00:43:59;;;;;;;11.02;5.10;;;6.00;99.90;;;;;;4956917;28;20137;-55
2022/11/03 00:46:26;;;;;;;8.25;4.60;;;5.90;99.90;;;;;;4940993;28;20046;-56
2022/11/03 00:48:53;;;;;;;14.48;4.15;;;5.90;99.90;;;;;;4941312;28;20047;-56
2022/11/03 00:51:22;;;;;;;8.88;4.85;;;5.90;99.90;;;;;;4943559;28;20252;-56
2022/11/03 00:53:53;;;;;;;7.18;4.43;;;5.90;99.90;;;;;;4939145;28;20035;-55
2022/11/03 00:56:40;;;;;;;7.40;3.92;;;5.90;99.90;;;;;;4941080;28;20061;-56
2022/11/03 00:59:09;;;;;;;6.93;4.45;;;5.90;99.90;;;;;;4942257;28;20511;-56
2022/11/03 01:01:41;;;;;;;7.13;4.28;;;5.90;99.90;;;;;;4936782;28;20298;-55
2022/11/03 01:07:02;;;;;;;8.48;4.63;;;5.90;99.90;;;;;;4940656;28;20263;-56
2022/11/03 01:09:34;;;;;;;5.63;3.92;;;5.90;99.90;;;;;;4939300;28;20166;-57
2022/11/03 01:12:13;;;;;;;5.35;3.67;;;5.80;99.90;;;;;;4941544;28;20046;-56
2022/11/03 01:14:48;;;;;;;4.70;3.67;;;5.80;99.90;;;;;;4941804;28;20688;-55
2022/11/03 01:17:24;;;;;;;13.18;4.63;;;5.80;99.90;;;;;;4939128;28;20134;-56
2022/11/03 01:19:51;;;;;;;8.43;5.50;;;5.80;99.90;;;;;;4940598;28;20190;-56
2022/11/03 01:22:19;;;;;;;6.85;3.78;;;5.80;99.90;;;;;;4943250;28;20592;-57
2022/11/03 01:24:46;;;;;;;8.60;4.40;;;5.70;99.90;;;;;;4940629;28;20516;-57
2022/11/03 01:27:15;;;;;;;6.50;4.55;;;5.70;99.90;;;;;;4941910;28;20227;-55
2022/11/03 01:29:42;;;;;;;10.52;4.78;;;5.70;99.90;;;;;;4942909;28;20534;-56
2022/11/03 01:32:08;;;;;;;7.40;4.93;;;5.70;99.90;;;;;;4938013;28;20295;-55
2022/11/03 01:34:35;;;;;;;8.63;5.03;;;5.70;99.90;;;;;;4939125;28;20529;-57
2022/11/03 01:37:02;;;;;;;10.00;5.32;;;5.70;99.90;;;;;;4938515;28;20082;-54
2022/11/03 01:39:29;;;;;;;7.10;5.00;;;5.70;99.90;;;;;;4942580;28;20509;-56
2022/11/03 01:41:56;;;;;;;9.45;4.30;;;5.70;99.90;;;;;;4940874;28;20050;-56
2022/11/03 01:44:26;;;;;;;7.40;4.22;;;5.70;99.90;;;;;;4940218;28;20043;-56
2022/11/03 01:47:07;;;;;;;10.70;4.40;;;5.60;99.90;;;;;;4939117;28;20052;-56
2022/11/03 01:49:42;;;;;;;5.85;3.75;;;5.60;99.90;;;;;;4941355;28;20457;-55
2022/11/03 01:52:24;;;;;;;6.00;4.70;;;5.60;99.90;;;;;;4940010;28;20046;-56
2022/11/03 01:54:57;;;;;;;5.00;3.80;;;5.60;99.90;;;;;;4938705;28;20073;-56
2022/11/03 01:57:30;;;;;;;8.93;3.95;;;5.60;99.90;;;;;;4939036;28;20613;-55
2022/11/03 01:59:58;;;;;;;5.80;3.50;;;5.60;99.90;;;;;;4941624;28;20101;-56
2022/11/03 02:02:25;;;;;;;8.60;4.38;;;5.60;99.90;;;;;;4967537;28;20716;-55
2022/11/03 02:04:54;;;;;;;11.77;4.18;;;5.60;99.90;;;;;;4939540;28;20091;-57
2022/11/03 02:07:30;;;;;;;7.95;4.25;;;5.60;99.90;;;;;;4940100;28;20581;-56
2022/11/03 02:09:57;;;;;;;6.95;4.13;;;5.60;99.90;;;;;;4940845;28;20057;-53
2022/11/03 02:12:24;;;;;;;;;;;5.60;99.90;;;;;;4941451;28;20046;-57
2022/11/03 02:15:03;;;;;;;14.85;4.80;;;5.60;99.90;;;;;;4941428;28;20357;-55
2022/11/03 02:17:32;;;;;;;9.95;4.70;;;5.60;99.90;;;;;;4943544;28;20099;-57
2022/11/03 02:20:07;;;;;;;14.35;4.40;;;5.50;99.90;;;;;;4941507;28;20529;-55
2022/11/03 02:22:43;;;;;;;10.98;4.50;;;5.50;99.90;;;;;;4941461;28;20486;-54
2022/11/03 02:25:44;;;;;;;10.90;5.15;;;5.50;99.90;;;;;;4939019;28;20117;-55
2022/11/03 02:28:15;;;;;;;9.40;4.05;;;5.50;99.90;;;;;;4940961;28;20509;-55
2022/11/03 02:30:44;;;;;;;12.45;5.40;;;5.50;99.90;;;;;;4939535;28;20048;-57
2022/11/03 02:33:30;;;;;;;5.90;3.83;;;5.50;99.90;;;;;;4971101;28;20369;-56
2022/11/03 02:36:12;;;;;;;9.93;3.70;;;5.50;99.90;;;;;;4940452;28;20784;-55
2022/11/03 02:38:55;;;;;;;8.63;3.95;;;5.50;99.90;;;;;;4942225;28;20423;-56
2022/11/03 02:41:23;;;;;;;5.38;4.00;;;5.40;99.90;;;;;;4973693;28;20054;-57
2022/11/03 02:43:53;;;;;;;4.97;3.63;;;5.40;99.90;;;;;;4941874;28;20129;-55
2022/11/03 02:46:21;;;;;;;4.93;3.45;;;5.40;99.90;;;;;;4941449;28;20572;-56
2022/11/03 02:48:48;;;;;;;6.28;3.83;;;5.30;99.90;;;;;;4935957;28;20063;-55
2022/11/03 02:51:15;;;;;;;4.38;3.47;;;5.30;99.90;;;;;;4938408;28;20493;-54
2022/11/03 02:53:54;;;;;;;7.13;3.72;;;5.30;99.90;;;;;;4938059;28;20067;-57
2022/11/03 02:56:23;;;;;;;7.30;3.92;;;5.20;99.90;;;;;;4937529;28;20481;-55
2022/11/03 02:59:03;;;;;;;8.70;4.43;;;5.20;99.90;;;;;;4939654;28;20141;-56
2022/11/03 03:01:45;;;;;;;11.18;4.35;;;5.10;99.90;;;;;;4939363;28;20785;-55
2022/11/03 03:04:35;;;;;;;8.25;5.35;;;5.10;99.90;;;;;;4941040;28;20047;-56
2022/11/03 03:07:07;;;;;;;9.90;4.47;;;5.00;99.90;;;;;;4937342;28;20802;-57
2022/11/03 03:09:45;;;;;;;7.00;4.45;;;4.90;99.90;;;;;;4938920;28;20495;-56
2022/11/03 03:12:16;;;;;;;6.70;4.82;;;4.90;99.90;;;;;;4939649;28;20501;-56
2022/11/03 03:14:45;;;;;;;5.50;4.35;;;4.90;99.90;;;;;;4941468;28;20147;-54
2022/11/03 03:17:23;;;;;;;10.55;4.85;;;4.90;99.90;;;;;;4940990;28;20141;-57
2022/11/03 03:20:04;;;;;;;9.73;5.03;;;4.90;99.90;;;;;;4937308;28;20078;-56
2022/11/03 03:22:57;;;;;;;5.35;3.97;;;4.90;99.90;;;;;;4938783;28;20055;-56
2022/11/03 03:25:31;;;;;;;9.07;4.68;;;4.90;99.90;;;;;;4941543;28;20053;-56
2022/11/03 03:28:03;;;;;;;5.57;4.32;;;4.90;99.90;;;;;;4944172;28;20069;-57
2022/11/03 03:30:31;;;;;;;6.88;3.97;;;5.00;99.90;;;;;;4942804;28;20135;-56
2022/11/03 03:33:00;;;;;;;7.68;5.03;;;5.00;99.90;;;;;;4941125;28;20130;-56
2022/11/03 03:35:29;;;;;;;6.82;4.60;;;5.00;99.90;;;;;;4943284;28;20051;-56
2022/11/03 03:38:01;;;;;;;5.95;4.15;;;5.00;99.90;;;;;;4957666;28;20058;-56
2022/11/03 03:40:39;;;;;;;11.60;4.22;;;5.00;99.90;;;;;;4943202;28;20053;-55
2022/11/03 03:43:08;;;;;;;8.30;5.05;;;5.00;99.90;;;;;;4943789;28;20047;-56
2022/11/03 03:45:37;;;;;;;7.05;4.28;;;5.00;99.90;;;;;;4943892;28;20468;-56
2022/11/03 03:48:05;;;;;;;8.98;4.13;;;5.00;99.90;;;;;;4942879;28;20065;-56
2022/11/03 03:50:36;;;;;;;7.30;4.72;;;5.00;99.90;;;;;;4944858;28;20062;-56
2022/11/03 03:53:09;;;;;;;8.27;4.38;;;5.00;99.90;;;;;;4945203;28;20043;-56
2022/11/03 03:55:42;;;;;;;8.18;3.97;;;5.10;99.90;;;;;;4942844;28;21040;-56
2022/11/03 03:58:12;;;;;;;8.80;4.78;;;5.10;99.90;;;;;;4948556;28;20066;-55
2022/11/03 04:00:40;;;;;;;7.97;4.22;;;5.10;99.90;;;;;;4940998;28;20043;-57
2022/11/03 04:03:18;;;;;;;9.50;4.20;;;5.10;99.90;;;;;;4940250;28;20053;-55
2022/11/03 04:05:45;;;;;;;7.57;3.67;;;5.10;99.90;;;;;;4944194;28;20424;-56
2022/11/03 04:08:13;;;;;;;6.20;3.63;;;5.10;99.90;;;;;;4943374;28;20495;-57
2022/11/03 04:10:40;;;;;;;5.82;4.35;;;5.00;99.90;;;;;;4942840;28;20055;-57
2022/11/03 04:24:09;;;;;;;8.10;3.78;;;4.90;99.90;;;;;;4944123;28;20071;-56
2022/11/03 04:26:35;;;;;;;11.25;3.97;;;4.90;99.90;;;;;;4942781;28;20059;-56
2022/11/03 04:29:05;;;;;;;;;;;4.90;99.90;;;;;;4942262;28;20419;-56
2022/11/03 04:31:35;;;;;;;10.48;4.90;;;4.90;99.90;;;;;;4941313;28;19926;-56
2022/11/03 04:34:09;;;;;;;6.18;3.60;;;4.90;99.90;;;;;;4940788;28;20046;-57
2022/11/03 04:36:35;;;;;;;10.65;3.78;;;4.90;99.90;;;;;;4941153;28;20149;-55
2022/11/03 04:39:18;;;;;;;6.38;4.10;;;4.90;99.90;;;;;;4942476;28;20046;-56
2022/11/03 04:41:45;;;;;;;7.70;4.13;;;4.90;99.90;;;;;;4942073;28;20051;-57
2022/11/03 04:44:15;;;;;;;;;;;4.80;99.90;;;;;;4941789;28;20279;-57
2022/11/03 04:46:44;;;;;;;5.32;4.05;;;4.90;99.90;;;;;;4940775;28;19926;-55
2022/11/03 04:49:19;;;;;;;6.53;4.05;;;4.90;99.90;;;;;;4940381;28;20051;-55
2022/11/03 04:51:46;;;;;;;6.47;3.78;;;4.80;99.90;;;;;;4942135;28;20381;-55
2022/11/03 04:54:17;;;;;;;4.72;4.00;;;4.80;99.90;;;;;;4943896;28;20083;-55
2022/11/03 04:56:44;;;;;;;8.65;4.55;;;4.80;99.90;;;;;;4941100;28;20154;-56
2022/11/03 04:59:12;;;;;;;5.95;3.67;;;4.80;99.90;;;;;;4939537;28;20352;-54
2022/11/03 05:01:39;;;;;;;4.78;3.80;;;4.80;99.90;;;;;;4941755;28;20262;-56
2022/11/03 05:04:17;;;;;;;7.53;3.40;;;4.80;99.90;;;;;;4940505;28;20046;-56
2022/11/03 05:06:52;;;;;;;5.80;3.50;;;4.80;99.90;;;;;;4944196;28;20051;-54
2022/11/03 05:09:30;;;;;;;5.03;3.50;;;4.80;99.90;;;;;;4943519;28;20607;-55
2022/11/03 05:11:58;;;;;;;5.45;3.63;;;4.70;99.90;;;;;;4940384;28;20043;-56
2022/11/03 05:14:28;;;;;;;5.65;3.97;;;4.70;99.90;;;;;;4941183;28;20263;-54
2022/11/03 05:16:56;;;;;;;6.65;3.50;;;4.70;99.90;;;;;;4941002;28;20054;-55
2022/11/03 05:19:35;;;;;;;5.20;3.58;;;4.70;99.90;;;;;;4941410;28;20047;-56
2022/11/03 05:22:03;;;;;;;8.52;4.57;;;4.70;99.90;;;;;;4939517;28;20484;-55
2022/11/03 05:24:32;;;;;;;6.38;3.50;;;4.70;99.90;;;;;;4940284;28;20278;-56
2022/11/03 05:26:59;;;;;;;8.55;3.28;;;4.80;99.90;;;;;;4938279;28;20043;-56
2022/11/03 05:29:30;;;;;;;5.55;3.53;;;4.70;99.90;;;;;;4942068;28;20457;-57
2022/11/03 05:31:57;;;;;;;11.52;5.07;;;4.70;99.90;;;;;;4938862;28;20047;-56
2022/11/03 05:34:39;;;;;;;8.25;4.13;;;4.70;99.90;;;;;;4942578;28;20047;-56
2022/11/03 05:37:18;;;;;;;7.60;4.22;;;4.70;99.90;;;;;;4940670;28;20412;-55
2022/11/03 05:39:57;;;;;;;14.07;5.15;;;4.70;99.90;;;;;;4940192;28;20046;-57
2022/11/03 05:42:29;;;;;;;6.55;4.05;;;4.70;99.90;;;;;;4940548;28;20055;-57
2022/11/03 05:44:56;;;;;;;7.45;3.72;;;4.70;99.90;;;;;;4939092;28;20039;-57
2022/11/03 05:47:26;;;;;;;9.00;4.53;;;4.70;99.90;;;;;;4937802;28;20075;-56
2022/11/03 05:49:59;;;;;;;6.80;4.00;;;4.70;99.90;;;;;;4938209;28;20130;-58
2022/11/03 05:52:27;;;;;;;6.47;3.83;;;4.70;99.90;;;;;;4939493;28;20042;-57
2022/11/03 05:54:56;;;;;;;12.73;4.25;;;4.70;99.90;;;;;;4939932;28;20047;-57
2022/11/03 05:57:27;;;;;;;6.82;4.30;;;4.70;99.90;;;;;;4940868;28;20137;-54
2022/11/03 05:59:54;;;;;;;10.88;4.88;;;4.80;99.90;;;;;;4940152;28;20051;-56
2022/11/03 06:02:40;;;;;;;10.07;4.47;;;4.80;99.90;;;;;;4943105;28;20086;-58
2022/11/03 06:05:26;;;;;;;4.55;3.50;;;4.80;99.90;;;;;;4939401;28;20055;-56
2022/11/03 06:07:56;;;;;;;6.80;4.18;;;4.80;99.90;;;;;;4942113;28;20053;-55
2022/11/03 06:10:26;;;;;;;5.05;3.90;;;4.80;99.90;;;;;;4941366;28;20046;-53
2022/11/03 06:13:20;;;;;;;4.78;3.67;;;4.80;99.90;;;;;;4942523;28;20050;-56
2022/11/03 06:15:54;;;;;;;7.38;3.88;;;4.90;99.90;;;;;;4941882;28;20058;-54
2022/11/03 06:18:28;;;;;;;4.00;3.28;;;4.90;99.90;;;;;;4944004;28;20134;-55
2022/11/03 06:21:02;;;;;;;4.93;3.97;;;4.90;99.90;;;;;;4937261;28;20070;-54
2022/11/03 06:23:28;;;;;;;4.15;3.17;;;4.90;99.90;;;;;;4941559;28;20053;-56
2022/11/03 06:25:55;;;;;;;;;;;4.90;99.90;;;;;;4939794;28;20054;-57
2022/11/03 06:28:33;;;;;;;6.90;4.47;;;4.90;99.90;;;;;;4937799;28;19926;-55
2022/11/03 06:31:00;;;;;;;7.40;4.22;;;4.90;99.90;;;;;;4940471;28;20618;-53
2022/11/03 06:33:32;;;;;;;7.80;4.97;;;4.90;99.90;;;;;;4939190;28;20044;-53
2022/11/03 06:36:10;;;;;;;8.52;5.13;;;5.00;99.90;;;;;;4936521;28;20047;-54
2022/11/03 06:38:36;;;;;;;11.60;6.65;;;5.00;99.90;;;;;;4941443;28;20051;-54
2022/11/03 06:41:03;;;;;;;12.10;5.82;;;5.00;99.90;;;;;;4938711;28;20043;-53
2022/11/03 06:43:39;;;;;;;17.63;8.65;;;5.10;99.90;;;;;;4940906;28;20252;-53
2022/11/03 06:46:32;;;;;;;15.88;8.85;;;5.10;99.90;;;;;;4940962;28;20039;-54
2022/11/03 06:49:03;;;;;;;13.88;7.40;;;5.20;99.90;;;;;;4940428;28;20534;-54
2022/11/03 06:51:33;;;;;;;12.45;6.90;;;5.20;99.90;;;;;;4936968;28;20078;-55
2022/11/03 06:54:04;;;;;;;11.40;5.90;;;5.20;99.90;;;;;;4941097;28;20523;-55
2022/11/03 06:56:35;;;;;;;10.15;6.00;;;5.30;99.90;;;;;;4940021;28;20497;-53
2022/11/03 06:59:02;;;;;;;7.90;4.03;;;5.30;99.90;;;;;;4970913;28;20047;-56
2022/11/03 07:01:32;;;;;;;6.38;4.00;;;5.50;99.90;;;;;;4941465;28;20066;-55
2022/11/03 07:04:20;;;;;;;5.78;4.28;;;5.60;99.90;;;;;;4942524;28;20055;-52
2022/11/03 07:06:47;;;;;;;;;;;5.80;99.90;;;;;;4945963;28;20347;-55
2022/11/03 07:09:21;;;;;;;5.65;4.20;;;6.00;99.90;;;;;;4946036;28;19933;-53
2022/11/03 07:11:50;;;;;;;6.43;4.55;;;6.30;99.90;;;;;;4944053;28;20406;-52
2022/11/03 07:14:23;;;;;;;9.60;4.00;;;6.50;99.90;;;;;;4943022;28;20067;-55
2022/11/03 07:16:54;;;;;;;7.70;3.90;;;6.80;99.90;;;;;;4943737;28;20615;-55
2022/11/03 07:19:25;;;;;;;7.78;4.38;;;7.10;99.90;;;;;;4944726;28;20051;-56
2022/11/03 07:21:55;;;;;;;8.73;4.15;;;7.40;99.90;;;;;;4943960;28;20324;-55
2022/11/03 07:24:26;;;;;;;10.95;5.05;;;7.80;99.90;;;;;;4944047;28;20046;-55
2022/11/03 07:27:01;;;;;;;8.60;4.60;;;8.30;99.90;;;;;;4943045;28;20251;-56
2022/11/03 07:29:29;;;;;;;5.65;3.47;;;8.70;99.90;;;;;;4942389;28;20070;-56
2022/11/03 07:31:58;;;;;;;9.98;4.00;;;9.00;99.90;;;;;;4944208;28;20047;-55
2022/11/03 07:34:31;;;;;;;5.65;3.35;;;9.20;99.90;;;;;;4943624;28;20048;-56
2022/11/03 07:36:58;;;;;;;6.88;3.53;;;9.40;99.90;;;;;;4943221;28;20132;-54
2022/11/03 07:39:32;;;;;;;5.47;3.42;;;9.60;99.90;;;;;;4941148;28;20573;-57
2022/11/03 07:42:16;;;;;;;5.15;3.45;;;9.90;99.90;;;;;;4940974;28;20067;-54
2022/11/03 07:44:44;;;;;;;8.45;4.47;;;10.20;99.90;;;;;;4971943;28;20046;-57
2022/11/03 07:47:14;;;;;;;11.20;4.25;;;10.60;99.90;;;;;;4941989;28;20044;-55
2022/11/03 07:49:41;;;;;;;5.85;3.60;;;11.00;99.90;;;;;;4945248;28;20039;-57
2022/11/03 07:52:18;;;;;;;7.88;4.05;;;11.30;99.90;;;;;;4942121;28;20942;-53
2022/11/03 07:54:45;;;;;;;10.80;3.53;;;11.50;99.90;;;;;;4945099;28;20512;-56
2022/11/03 07:57:19;;;;;;;10.30;4.35;;;11.70;99.90;;;;;;4940249;28;20144;-55
2022/11/03 07:59:49;;;;;;;4.50;3.30;;;11.90;99.90;;;;;;4941488;28;20046;-56
2022/11/03 08:02:25;;;;;;;8.10;3.65;;;12.00;99.90;;;;;;4943452;28;20229;-56
2022/11/03 08:04:51;;;;;;;5.47;3.70;;;12.20;99.90;;;;;;4943293;28;20159;-56
2022/11/03 08:07:18;;;;;;;9.95;4.07;;;12.40;99.90;;;;;;4942740;28;20053;-56
2022/11/03 08:09:45;;;;;;;7.43;3.15;;;12.50;99.90;;;;;;4942649;28;20050;-56
2022/11/03 08:12:12;;;;;;;5.97;3.42;;;12.70;99.90;;;;;;4942662;28;20142;-57
2022/11/03 08:14:38;;;;;;;5.75;3.33;;;12.90;99.90;;;;;;4939716;28;20047;-54
2022/11/03 08:17:05;;;;;;;5.18;3.05;;;13.10;99.90;;;;;;4944012;28;20053;-53
2022/11/03 08:19:32;;;;;;;;;;;13.40;99.90;;;;;;4943243;28;20498;-54
2022/11/03 08:21:58;;;;;;;6.10;3.28;;;13.50;99.90;;;;;;4939119;28;19926;-54
2022/11/03 08:24:25;;;;;;;;;;;13.50;99.90;;;;;;4943597;28;20058;-54
2022/11/03 08:26:52;;;;;;;5.57;3.08;;;13.40;99.90;;;;;;4942851;28;19956;-55
2022/11/03 08:29:18;;;;;;;6.40;3.40;;;13.10;99.90;;;;;;4941524;28;20050;-57
2022/11/03 08:31:45;;;;;;;;;;;12.90;99.90;;;;;;4973505;28;20055;-56
2022/11/03 08:34:12;;;;;;;9.60;3.90;;;12.70;99.90;;;;;;4942881;28;19932;-55
2022/11/03 08:36:38;;;;;;;;;;;12.50;99.90;;;;;;4944944;28;20079;-55
2022/11/03 08:39:05;;;;;;;9.65;3.85;;;12.20;99.90;;;;;;4941630;28;19930;-54
2022/11/03 08:41:32;;;;;;;7.38;3.35;;;12.00;99.90;;;;;;4941221;28;20066;-55
2022/11/03 08:43:58;;;;;;;;;;;11.90;99.90;;;;;;4944541;28;20074;-57
2022/11/03 08:46:25;;;;;;;8.68;3.78;;;11.70;99.90;;;;;;4941602;28;19988;-56
2022/11/03 08:48:52;;;;;;;;;;;11.70;99.90;;;;;;4950155;28;20277;-52
2022/11/03 08:51:19;;;;;;;6.25;3.53;;;11.60;99.90;;;;;;4938102;28;20217;-55
2022/11/03 08:53:49;;;;;;;;;;;11.50;99.90;;;;;;4943683;28;20047;-52
2022/11/03 08:56:16;;;;;;;6.07;3.70;;;11.40;99.90;;;;;;4937673;28;20844;-54
2022/11/03 08:58:47;;;;;;;7.80;3.90;;;11.40;99.90;;;;;;4957341;28;20055;-53
2022/11/03 09:01:15;;;;;;;7.57;3.30;;;11.40;99.90;;;;;;4940872;28;20133;-53
2022/11/03 09:03:42;;;;;;;4.50;3.33;;;11.50;99.90;;;;;;4939907;28;20563;-60
2022/11/03 09:06:09;;;;;;;8.93;3.42;;;11.60;99.90;;;;;;4942023;28;20051;-56
2022/11/03 09:08:36;;;;;;;7.22;3.88;;;11.60;99.90;;;;;;4940868;28;20436;-54
2022/11/03 09:11:22;;;;;;;4.70;3.40;;;11.70;99.90;;;;;;4943190;28;20190;-53
2022/11/03 09:13:49;;;;;;;4.45;3.22;;;11.80;99.90;;;;;;4941703;28;20053;-54
2022/11/03 09:16:16;;;;;;;;;;;11.90;99.90;;;;;;4944403;28;20113;-54
2022/11/03 09:18:43;;;;;;;8.85;4.03;;;12.00;99.90;;;;;;4941096;28;19926;-55
2022/11/03 09:21:09;;;;;;;10.25;3.80;;;12.00;99.90;;;;;;4937171;28;20070;-54
2022/11/03 09:23:36;;;;;;;9.30;3.40;;;12.10;99.90;;;;;;4938647;28;20541;-54
2022/11/03 09:26:04;;;;;;;5.22;3.20;;;12.30;99.90;;;;;;4939888;28;20534;-56
2022/11/03 09:28:31;;;;;;;5.40;3.50;;;12.40;99.90;;;;;;4942229;28;20049;-63
2022/11/03 09:30:58;;;;;;;8.30;4.30;;;12.60;99.90;;;;;;4944348;28;20519;-56
2022/11/03 09:33:25;;;;;;;7.75;4.10;;;12.80;99.90;;;;;;4939432;28;20560;-55
2022/11/03 09:35:51;;;;;;;14.75;4.95;;;12.90;99.90;;;;;;4943013;28;20123;-54
2022/11/03 09:38:18;;;;;;;6.57;4.50;;;13.00;99.90;;;;;;4940653;28;20102;-54
2022/11/03 09:40:45;;;;;;;10.52;4.18;;;13.00;99.90;;;;;;4941982;28;20046;-52
2022/11/03 09:43:12;;;;;;;11.30;4.97;;;13.00;99.90;;;;;;4939609;28;20531;-54
2022/11/03 09:45:38;;;;;;;12.10;4.75;;;13.10;99.90;;;;;;4941800;28;20115;-53
2022/11/03 09:48:08;;;;;;;;;;;13.10;99.90;;;;;;4940109;28;20142;-52
2022/11/03 09:50:36;;;;;;;11.25;4.57;;;13.30;99.90;;;;;;4940350;28;19934;-54
2022/11/03 09:53:03;;;;;;;10.65;5.35;;;13.40;99.90;;;;;;4940250;28;20042;-57
2022/11/03 09:55:32;;;;;;;12.35;4.95;;;13.60;99.90;;;;;;4938947;28;20051;-55
2022/11/03 09:58:07;;;;;;;11.90;6.07;;;13.80;99.90;;;;;;4942633;28;20164;-54
2022/11/03 10:00:34;;;;;;;8.80;4.82;;;14.10;99.90;;;;;;4941689;28;20340;-55
2022/11/03 10:03:02;;;;;;;10.77;4.40;;;14.50;99.90;;;;;;4937406;28;20056;-55
2022/11/03 10:05:30;;;;;;;10.73;5.35;;;14.70;99.90;;;;;;4939509;28;20285;-55
2022/11/03 10:08:05;;;;;;;8.23;4.45;;;14.90;99.90;;;;;;4940068;28;20047;-52
2022/11/03 10:10:33;;;;;;;18.48;5.68;;;15.00;99.90;;;;;;4945541;28;20042;-55
2022/11/03 10:13:00;;;;;;;7.22;4.80;;;15.00;99.90;;;;;;4937215;28;20198;-53
2022/11/03 10:15:27;;;;;;;14.23;5.45;;;15.10;99.90;;;;;;4941740;28;20413;-52
2022/11/03 10:17:55;;;;;;;9.65;5.63;;;15.20;99.90;;;;;;4942810;28;20055;-56
2022/11/03 10:20:22;;;;;;;12.82;5.25;;;15.30;99.90;;;;;;4940175;28;20044;-55
2022/11/03 10:22:52;;;;;;;9.43;5.30;;;15.30;99.90;;;;;;4941467;28;20058;-54
2022/11/03 10:25:34;;;;;;;12.00;4.43;;;15.30;99.90;;;;;;4938802;28;20218;-56
2022/11/03 10:28:21;;;;;;;9.27;4.47;;;15.40;99.90;;;;;;4941536;28;20047;-57
2022/11/03 10:30:57;;;;;;;9.07;4.30;;;15.50;99.90;;;;;;4938088;28;20057;-55
2022/11/03 10:33:54;;;;;;;6.35;3.92;;;15.70;99.90;;;;;;4941794;28;20065;-54
2022/11/03 10:36:24;;;;;;;11.50;3.67;;;15.90;99.90;;;;;;4947034;28;20051;-55
2022/11/03 10:38:51;;;;;;;11.88;4.40;;;16.00;99.90;;;;;;4945849;28;20525;-55
2022/11/03 10:41:19;;;;;;;12.65;5.18;;;16.00;99.90;;;;;;4945560;28;20050;-54
2022/11/03 10:44:18;;;;;;;8.57;4.13;;;16.10;99.90;;;;;;4942737;28;20050;-53
2022/11/03 10:47:01;;;;;;;6.68;4.25;;;16.10;99.90;;;;;;4943099;28;20174;-53
2022/11/03 10:49:35;;;;;;;9.80;4.20;;;16.10;99.90;;;;;;4941756;28;20208;-56
2022/11/03 10:52:22;;;;;;;5.95;3.88;;;15.90;99.90;;;;;;4943268;28;20042;-56
2022/11/03 10:54:52;;;;;;;9.02;4.07;;;15.70;99.90;;;;;;4941169;28;20074;-54
2022/11/03 10:57:21;;;;;;;5.80;3.75;;;15.60;99.90;;;;;;4942462;28;20055;-55
2022/11/03 10:59:50;;;;;;;8.30;3.95;;;15.50;99.90;;;;;;4944781;28;20626;-55
2022/11/03 11:02:24;;;;;;;10.60;3.92;;;15.50;99.90;;;;;;4944139;28;20439;-54
2022/11/03 11:05:08;;;;;;;11.45;5.43;;;15.30;99.90;;;;;;4940552;28;20660;-54
2022/11/03 11:07:40;;;;;;;10.40;4.75;;;15.20;99.90;;;;;;4947121;28;20264;-55
2022/11/03 11:10:18;;;;;;;6.68;4.60;;;15.10;99.90;;;;;;4944729;28;20557;-56
2022/11/03 11:13:17;;;;;;;11.05;5.55;;;15.20;99.90;;;;;;4944413;28;20128;-54
2022/11/03 11:15:51;;;;;;;7.47;4.95;;;15.30;99.90;;;;;;4943333;28;20569;-55
2022/11/03 11:18:58;;;;;;;8.93;5.15;;;15.40;99.90;;;;;;4944404;28;20074;-54
2022/11/03 11:21:25;;;;;;;7.70;4.43;;;15.40;99.90;;;;;;4941141;28;20154;-55
2022/11/03 11:23:52;;;;;;;;;;;15.50;99.90;;;;;;4942219;28;20146;-54
2022/11/03 11:26:24;;;;;;;8.88;5.47;;;15.50;99.90;;;;;;4943808;28;19933;-53
2022/11/03 11:29:29;;;;;;;8.43;4.40;;;15.50;99.90;;;;;;4942163;28;20422;-53
2022/11/03 11:31:56;;;;;;;7.30;4.65;;;15.60;99.90;;;;;;4942443;28;20149;-55
2022/11/03 11:34:22;;;;;;;;;;;15.70;99.90;;;;;;4942901;28;20043;-53
2022/11/03 11:36:55;;;;;;;6.97;4.63;;;15.70;99.90;;;;;;4942069;28;19965;-53
2022/11/03 11:39:22;;;;;;;7.95;5.35;;;15.90;99.90;;;;;;4945015;28;20105;-56
2022/11/03 11:42:07;;;;;;;;;;;16.00;99.90;;;;;;4943581;28;20050;-54
2022/11/03 11:44:48;;;;;;;11.45;5.65;;;16.20;99.90;;;;;;4944295;28;19922;-56
2022/11/03 11:47:39;;;;;;;8.50;5.75;;;16.30;99.90;;;;;;4943769;28;20047;-55
2022/11/03 11:50:06;;;;;;;16.70;5.07;;;16.30;99.90;;;;;;4944831;28;20047;-54
2022/11/03 11:52:38;;;;;;;;;;;16.20;99.90;;;;;;4943927;28;20127;-55
2022/11/03 11:55:11;;;;;;;9.00;4.93;;;16.20;99.90;;;;;;4941259;28;19997;-55
2022/11/03 11:57:38;;;;;;;8.40;4.97;;;16.20;99.90;;;;;;4940359;28;20295;-53
2022/11/03 12:00:06;;;;;;;;;;;16.10;99.90;;;;;;4941488;28;20051;-55
2022/11/03 12:02:37;;;;;;;6.32;4.75;;;16.00;99.90;;;;;;4943349;28;19933;-55
2022/11/03 12:05:06;;;;;;;13.60;5.38;;;16.00;99.90;;;;;;4938175;28;20561;-56
2022/11/03 12:07:36;;;;;;;9.43;5.20;;;16.10;99.90;;;;;;4941918;28;20047;-54
2022/11/03 12:10:18;;;;;;;9.15;5.07;;;16.10;99.90;;;;;;4942244;28;20049;-56
2022/11/03 12:12:45;;;;;;;7.00;4.25;;;16.20;99.90;;;;;;4958632;28;20145;-52
2022/11/03 12:16:00;;;;;;;8.60;4.57;;;16.30;99.90;;;;;;4943171;28;20150;-55
2022/11/03 12:18:41;;;;;;;11.48;4.88;;;16.40;99.90;;;;;;4944197;28;20148;-58
2022/11/03 12:21:45;;;;;;;9.85;4.53;;;16.50;99.90;;;;;;4941725;28;20054;-55
2022/11/03 12:24:30;;;;;;;7.47;4.60;;;16.60;99.90;;;;;;4944293;28;20042;-54
2022/11/03 12:27:00;;;;;;;11.88;4.43;;;16.60;99.90;;;;;;4940809;28;20081;-52
2022/11/03 12:29:27;;;;;;;7.95;4.95;;;16.60;99.90;;;;;;4943887;28;20038;-54
2022/11/03 12:31:54;;;;;;;7.85;4.80;;;16.60;99.90;;;;;;4938392;28;20048;-53
2022/11/03 12:34:21;;;;;;;10.98;4.97;;;16.60;99.90;;;;;;4941678;28;20564;-52
2022/11/03 12:36:47;;;;;;;;;;;16.50;99.90;;;;;;4975344;28;20130;-53
2022/11/03 12:39:21;;;;;;;10.15;4.18;;;16.40;99.90;;;;;;4942977;28;19933;-53
2022/11/03 12:41:48;;;;;;;9.40;4.70;;;16.40;99.90;;;;;;4942249;28;20055;-53
2022/11/03 12:44:15;;;;;;;;;;;16.40;99.90;;;;;;4941555;28;20173;-54
2022/11/03 12:46:41;;;;;;;7.28;4.72;;;16.30;99.90;;;;;;4943172;28;20223;-54
2022/11/03 12:49:08;;;;;;;;;;;16.20;99.90;;;;;;4939972;28;20071;-54
2022/11/03 12:51:35;;;;;;;8.15;5.18;;;16.10;99.90;;;;;;4939461;28;20021;-55
2022/11/03 12:54:02;;;;;;;9.40;5.63;;;16.00;99.90;;;;;;4939193;28;20043;-54
2022/11/03 12:56:29;;;;;;;8.05;4.65;;;16.00;99.90;;;;;;4941275;28;20035;-55
2022/11/03 12:58:55;;;;;;;12.25;6.32;;;15.80;99.90;;;;;;4939970;28;20269;-56
2022/11/03 13:01:22;;;;;;;;;;;15.80;99.90;;;;;;4944233;28;20510;-58
2022/11/03 13:03:49;;;;;;;13.98;7.63;;;15.70;99.90;;;;;;4941407;28;20347;-53
2022/11/03 13:06:15;;;;;;;;;;;15.60;99.90;;;;;;4941172;28;20047;-54
2022/11/03 13:08:43;;;;;;;27.30;13.10;;;15.50;99.90;;;;;;4941972;28;19962;-54
2022/11/03 13:13:58;;;;;;;18.17;12.60;;;15.10;99.90;;;;;;4938280;28;20040;-54
2022/11/03 13:16:25;;;;;;;;;;;15.00;99.90;;;;;;4944881;28;20042;-54
2022/11/03 13:18:52;;;;;;;21.17;12.07;;;14.90;99.90;;;;;;4941625;28;20730;-54
2022/11/03 13:21:18;;;;;;;;;;;14.70;99.90;;;;;;4942222;28;20045;-53
2022/11/03 13:23:45;;;;;;;26.25;12.63;;;14.60;99.90;;;;;;4939643;28;19945;-54
2022/11/03 13:26:12;;;;;;;;;;;14.50;99.90;;;;;;4941408;28;20221;-53
2022/11/03 13:28:39;;;;;;;20.30;12.82;;;14.30;99.90;;;;;;4939420;28;20037;-55
2022/11/03 13:31:06;;;;;;;18.98;12.25;;;14.30;99.90;;;;;;4938482;28;20042;-54
2022/11/03 13:33:32;;;;;;;;;;;14.20;99.90;;;;;;4939009;28;20121;-55
2022/11/03 13:35:59;;;;;;;22.95;12.35;;;14.10;99.90;;;;;;4940307;28;20296;-54
2022/11/03 13:38:26;;;;;;;15.43;11.18;;;14.00;99.90;;;;;;4938579;28;20049;-54